Time;durP1;ratioP1;P1;durP2;ratioP2;P2;SDS_P1;SDS_P2;PMS_P1;PMS_P2;Temp;Humidity;BMP_temperature;BMP_pressure;BME280_temperature;BME280_humidity;BME280_pressure;Samples;Min_cycle;Max_cycle;Signal;HPM_P1;HPM_P2
2021/03/16 00:01:05;;;;;;;1.33;0.60;;;20.50;43.40;;;;;;5083430;28;20501;-53
2021/03/16 00:03:32;;;;;;;1.55;0.70;;;20.50;43.40;;;;;;5075269;28;20477;-55
2021/03/16 00:05:58;;;;;;;2.33;0.40;;;20.50;43.40;;;;;;5071836;28;20362;-49
2021/03/16 00:08:24;;;;;;;1.42;0.60;;;20.50;43.30;;;;;;5082892;28;20039;-57
2021/03/16 00:10:50;;;;;;;1.40;0.82;;;20.50;43.30;;;;;;5090503;28;20055;-57
2021/03/16 00:13:15;;;;;;;2.92;0.60;;;20.50;43.30;;;;;;5071652;28;20078;-57
2021/03/16 00:15:41;;;;;;;3.25;0.80;;;20.50;43.30;;;;;;5076229;28;20032;-55
2021/03/16 00:18:13;;;;;;;1.75;0.70;;;20.50;43.30;;;;;;5074588;28;20028;-55
2021/03/16 00:20:39;;;;;;;1.90;0.65;;;20.50;43.30;;;;;;5078570;28;20024;-58
2021/03/16 00:23:07;;;;;;;1.38;0.50;;;20.50;43.20;;;;;;5072335;28;20040;-57
2021/03/16 00:25:32;;;;;;;1.90;0.65;;;20.50;43.20;;;;;;5071213;28;20090;-56
2021/03/16 00:27:58;;;;;;;1.05;0.63;;;20.50;43.20;;;;;;5071757;28;20033;-57
2021/03/16 00:30:24;;;;;;;2.83;0.52;;;20.50;43.20;;;;;;5071372;28;20047;-55
2021/03/16 00:32:50;;;;;;;1.23;0.57;;;20.50;43.10;;;;;;5079909;28;20027;-51
2021/03/16 00:35:16;;;;;;;1.70;0.50;;;20.50;43.10;;;;;;5071006;28;20029;-57
2021/03/16 00:37:41;;;;;;;1.58;0.60;;;20.50;43.10;;;;;;5069982;28;20465;-57
2021/03/16 00:40:08;;;;;;;1.20;0.52;;;20.50;43.10;;;;;;5071389;28;20020;-57
2021/03/16 00:42:33;;;;;;;1.98;0.73;;;20.50;43.10;;;;;;5084019;28;20077;-58
2021/03/16 00:44:59;;;;;;;2.25;0.60;;;20.50;43.10;;;;;;5093909;28;20399;-52
2021/03/16 00:47:25;;;;;;;1.10;0.73;;;20.50;43.10;;;;;;5086091;28;20497;-56
2021/03/16 00:49:51;;;;;;;2.05;0.60;;;20.50;43.10;;;;;;5082685;28;20049;-58
2021/03/16 00:52:17;;;;;;;2.65;0.70;;;20.50;43.10;;;;;;5085595;28;20103;-57
2021/03/16 00:54:43;;;;;;;1.83;0.55;;;20.50;43.00;;;;;;5073897;28;20552;-55
2021/03/16 00:57:08;;;;;;;2.17;0.77;;;20.50;43.00;;;;;;5080950;28;20485;-58
2021/03/16 00:59:34;;;;;;;2.53;0.57;;;20.50;43.00;;;;;;5091622;28;20035;-52
2021/03/16 01:01:59;;;;;;;1.63;0.60;;;20.50;42.90;;;;;;5087078;28;20578;-57
2021/03/16 01:04:25;;;;;;;0.60;0.50;;;20.50;42.90;;;;;;5074097;28;20028;-57
2021/03/16 01:06:51;;;;;;;1.85;0.60;;;20.50;43.00;;;;;;5073813;28;20024;-51
2021/03/16 01:09:16;;;;;;;1.52;0.50;;;20.50;42.80;;;;;;5081341;28;20091;-57
2021/03/16 01:11:42;;;;;;;3.28;0.60;;;20.50;42.80;;;;;;5076743;28;20126;-57
2021/03/16 01:14:08;;;;;;;3.13;1.02;;;20.50;42.70;;;;;;5079695;28;20099;-54
2021/03/16 01:16:34;;;;;;;1.58;0.80;;;20.50;42.70;;;;;;5083878;28;20131;-55
2021/03/16 01:18:59;;;;;;;1.45;0.57;;;20.50;42.70;;;;;;5075024;28;20040;-57
2021/03/16 01:21:25;;;;;;;2.50;0.70;;;20.50;42.70;;;;;;5092583;28;20022;-52
2021/03/16 01:23:51;;;;;;;1.45;0.73;;;20.50;42.60;;;;;;5089164;28;20032;-57
2021/03/16 01:26:17;;;;;;;0.55;0.50;;;20.50;43.30;;;;;;5075583;28;20028;-55
2021/03/16 01:28:42;;;;;;;1.23;0.47;;;20.50;42.50;;;;;;5081085;28;20035;-54
2021/03/16 01:31:08;;;;;;;0.95;0.50;;;20.50;42.50;;;;;;5091227;28;20025;-58
2021/03/16 01:33:34;;;;;;;3.30;0.90;;;20.50;42.60;;;;;;5080385;28;20063;-58
2021/03/16 01:35:59;;;;;;;2.85;0.60;;;20.50;42.50;;;;;;5075118;28;20090;-58
2021/03/16 01:38:25;;;;;;;1.08;0.50;;;20.50;42.50;;;;;;5074549;28;20021;-58
2021/03/16 01:40:51;;;;;;;2.10;0.73;;;20.50;42.50;;;;;;5075073;28;20029;-58
2021/03/16 01:43:23;;;;;;;3.53;0.60;;;20.50;42.50;;;;;;5083164;28;20725;-55
2021/03/16 01:45:49;;;;;;;1.90;0.60;;;20.50;42.50;;;;;;5074497;28;20094;-57
2021/03/16 01:48:33;;;;;;;1.95;0.50;;;20.50;42.50;;;;;;5074426;28;20024;-55
2021/03/16 01:51:06;;;;;;;2.45;0.93;;;20.50;42.50;;;;;;5081799;28;20027;-58
2021/03/16 01:53:33;;;;;;;1.35;0.60;;;20.50;42.50;;;;;;5092664;28;20055;-50
2021/03/16 01:56:01;;;;;;;2.03;0.50;;;20.50;42.50;;;;;;5084733;28;20497;-52
2021/03/16 01:58:26;;;;;;;3.88;1.08;;;20.50;42.50;;;;;;5085834;28;21678;-56
2021/03/16 02:00:52;;;;;;;1.38;0.88;;;20.50;42.50;;;;;;5078740;28;20119;-55
2021/03/16 02:03:18;;;;;;;1.20;0.73;;;20.50;42.50;;;;;;5077607;28;20043;-55
2021/03/16 02:05:45;;;;;;;1.95;0.88;;;20.50;42.50;;;;;;5083566;28;20419;-57
2021/03/16 02:08:41;;;;;;;1.33;0.70;;;20.50;42.60;;;;;;5090796;28;20381;-52
2021/03/16 02:11:17;;;;;;;1.33;0.60;;;20.50;42.60;;;;;;5082414;28;20469;-50
2021/03/16 02:14:21;;;;;;;1.10;0.70;;;20.50;42.50;;;;;;5091203;28;20030;-52
2021/03/16 02:16:53;;;;;;;1.77;0.77;;;20.50;42.50;;;;;;5081750;28;20390;-46
2021/03/16 02:19:52;;;;;;;3.10;0.73;;;20.50;42.50;;;;;;5073629;28;20021;-57
2021/03/16 02:22:21;;;;;;;0.82;0.50;;;20.50;42.60;;;;;;5086396;28;20134;-52
2021/03/16 02:25:14;;;;;;;0.98;0.57;;;20.50;42.50;;;;;;5090519;28;20061;-57
2021/03/16 02:28:09;;;;;;;1.38;0.75;;;20.50;42.50;;;;;;5083839;28;20086;-57
2021/03/16 02:30:38;;;;;;;2.78;1.05;;;20.50;42.50;;;;;;5044050;28;20382;-57
2021/03/16 02:33:09;;;;;;;1.17;0.57;;;20.50;42.60;;;;;;5077493;28;20032;-55
2021/03/16 02:35:35;;;;;;;2.55;0.75;;;20.50;42.50;;;;;;5083566;28;20376;-56
2021/03/16 02:38:04;;;;;;;3.33;0.60;;;20.50;42.50;;;;;;5070624;28;20052;-54
2021/03/16 02:40:32;;;;;;;2.10;0.85;;;20.50;42.50;;;;;;5072001;28;20025;-51
2021/03/16 02:42:58;;;;;;;1.70;0.63;;;20.50;42.50;;;;;;5081067;28;20024;-56
2021/03/16 02:45:25;;;;;;;2.42;0.73;;;20.50;42.50;;;;;;5077073;28;20067;-56
2021/03/16 02:47:52;;;;;;;1.73;0.95;;;20.50;42.50;;;;;;5083904;28;20028;-56
2021/03/16 02:50:18;;;;;;;2.00;0.90;;;20.50;42.60;;;;;;5081314;28;20024;-53
2021/03/16 02:52:44;;;;;;;1.55;0.80;;;20.50;42.50;;;;;;5084046;28;20063;-55
2021/03/16 02:55:11;;;;;;;3.95;0.90;;;20.50;42.50;;;;;;5091980;28;20032;-53
2021/03/16 02:57:38;;;;;;;1.75;0.50;;;20.50;42.50;;;;;;5087410;28;20098;-58
2021/03/16 03:00:05;;;;;;;2.03;0.60;;;20.50;42.50;;;;;;5087901;28;20122;-58
2021/03/16 03:02:32;;;;;;;1.40;0.60;;;20.50;42.50;;;;;;5072953;28;20082;-57
2021/03/16 03:04:59;;;;;;;2.22;0.50;;;20.50;42.50;;;;;;5069661;28;20043;-55
2021/03/16 03:07:25;;;;;;;2.13;0.80;;;20.50;42.50;;;;;;5078776;28;20389;-56
2021/03/16 03:09:52;;;;;;;1.55;0.70;;;20.50;42.50;;;;;;5074020;28;20027;-55
2021/03/16 03:12:17;;;;;;;2.40;0.60;;;20.50;42.50;;;;;;5090050;28;20027;-56
2021/03/16 03:14:43;;;;;;;0.65;0.50;;;20.50;42.60;;;;;;5075933;28;20062;-56
2021/03/16 03:17:09;;;;;;;1.85;0.70;;;20.50;42.50;;;;;;5090421;28;20093;-56
2021/03/16 03:19:35;;;;;;;1.35;0.57;;;20.50;42.40;;;;;;5083158;28;20028;-53
2021/03/16 03:22:22;;;;;;;2.47;0.65;;;20.50;42.50;;;;;;5083758;28;20210;-57
2021/03/16 03:24:56;;;;;;;1.05;0.47;;;20.50;42.50;;;;;;5076617;28;20109;-58
2021/03/16 03:27:30;;;;;;;1.48;0.60;;;20.50;42.50;;;;;;5071979;28;20077;-54
2021/03/16 03:29:58;;;;;;;1.25;0.43;;;20.50;42.40;;;;;;5079021;28;20110;-57
2021/03/16 03:32:28;;;;;;;1.33;0.70;;;20.50;42.50;;;;;;5072824;28;20051;-56
2021/03/16 03:34:54;;;;;;;2.58;1.08;;;20.50;42.50;;;;;;5072599;28;20488;-53
2021/03/16 03:37:22;;;;;;;1.98;0.60;;;20.50;42.50;;;;;;5074173;28;20028;-56
2021/03/16 03:39:49;;;;;;;2.47;0.70;;;20.50;42.50;;;;;;5077776;28;20370;-53
2021/03/16 03:42:17;;;;;;;2.63;0.80;;;20.50;42.50;;;;;;5070567;28;20523;-56
2021/03/16 03:44:46;;;;;;;3.13;0.90;;;20.50;42.50;;;;;;5086592;28;20027;-58
2021/03/16 03:47:14;;;;;;;1.65;0.70;;;20.50;42.50;;;;;;5087307;28;20028;-56
2021/03/16 03:49:42;;;;;;;1.02;0.50;;;20.50;42.50;;;;;;5091168;28;20052;-50
2021/03/16 03:52:12;;;;;;;1.95;0.77;;;20.50;42.50;;;;;;5084427;28;20037;-57
2021/03/16 03:54:44;;;;;;;0.52;0.40;;;20.50;42.60;;;;;;5072035;28;20115;-56
2021/03/16 03:57:13;;;;;;;;;;;20.50;42.50;;;;;;5077865;28;20028;-58
2021/03/16 03:59:48;;;;;;;1.90;0.50;;;20.50;42.40;;;;;;5087239;28;20361;-56
2021/03/16 04:02:15;;;;;;;1.33;0.60;;;20.50;42.40;;;;;;5074818;28;20040;-56
2021/03/16 04:04:41;;;;;;;0.63;0.40;;;20.50;42.40;;;;;;5071861;28;20089;-53
2021/03/16 04:07:08;;;;;;;1.77;0.63;;;20.50;42.40;;;;;;5071891;28;20025;-49
2021/03/16 04:09:34;;;;;;;3.50;0.73;;;20.50;42.40;;;;;;5086398;28;20058;-57
2021/03/16 04:12:01;;;;;;;1.00;0.60;;;20.50;42.40;;;;;;5081644;28;20051;-54
2021/03/16 04:14:27;;;;;;;2.25;0.60;;;20.50;42.40;;;;;;5081674;28;20069;-54
2021/03/16 04:16:54;;;;;;;1.42;0.50;;;20.50;42.40;;;;;;5073771;28;20516;-55
2021/03/16 04:19:21;;;;;;;1.92;0.70;;;20.50;42.40;;;;;;5091225;28;20031;-58
2021/03/16 04:21:47;;;;;;;1.63;0.88;;;20.50;42.40;;;;;;5085455;28;20032;-56
2021/03/16 04:24:13;;;;;;;2.33;0.68;;;20.50;42.40;;;;;;5090589;28;20089;-55
2021/03/16 04:26:39;;;;;;;1.70;0.70;;;20.60;42.50;;;;;;5089687;28;20466;-54
2021/03/16 04:29:04;;;;;;;1.48;0.73;;;20.50;42.40;;;;;;5070431;28;20103;-55
2021/03/16 04:31:30;;;;;;;1.08;0.60;;;20.50;42.40;;;;;;5079446;28;20064;-54
2021/03/16 04:33:56;;;;;;;1.10;0.60;;;20.50;42.40;;;;;;5086986;28;20032;-58
2021/03/16 04:36:21;;;;;;;1.45;0.52;;;20.50;42.40;;;;;;5083753;28;20028;-57
2021/03/16 04:38:47;;;;;;;1.10;0.50;;;20.60;42.50;;;;;;5071823;28;20085;-56
2021/03/16 04:41:13;;;;;;;2.15;0.70;;;20.60;42.50;;;;;;5086702;28;20107;-56
2021/03/16 04:43:41;;;;;;;2.78;0.77;;;20.60;42.50;;;;;;5087496;28;20138;-54
2021/03/16 04:46:08;;;;;;;1.67;0.50;;;20.50;42.40;;;;;;5077969;28;20063;-57
2021/03/16 04:48:34;;;;;;;2.38;0.98;;;20.50;42.40;;;;;;5074924;28;20040;-57
2021/03/16 04:51:00;;;;;;;2.78;0.65;;;20.60;42.50;;;;;;5087692;28;20349;-56
2021/03/16 04:53:25;;;;;;;0.70;0.50;;;20.60;42.50;;;;;;5075300;28;20377;-55
2021/03/16 04:55:51;;;;;;;1.17;0.60;;;20.60;42.40;;;;;;5070825;28;20032;-50
2021/03/16 04:58:17;;;;;;;1.95;0.50;;;20.60;42.50;;;;;;5078972;28;20052;-56
2021/03/16 05:00:42;;;;;;;3.97;0.73;;;20.60;42.40;;;;;;5080123;28;20052;-58
2021/03/16 05:03:08;;;;;;;1.33;0.73;;;20.60;42.50;;;;;;5076965;28;20032;-56
2021/03/16 05:05:33;;;;;;;3.35;0.60;;;20.60;42.50;;;;;;5071286;28;20393;-56
2021/03/16 05:07:59;;;;;;;2.47;0.60;;;20.60;42.40;;;;;;5076964;28;20024;-57
2021/03/16 05:10:25;;;;;;;1.75;0.70;;;20.60;42.50;;;;;;5071084;28;20059;-56
2021/03/16 05:12:50;;;;;;;3.10;0.50;;;20.60;42.40;;;;;;5079630;28;20062;-58
2021/03/16 05:15:16;;;;;;;1.00;0.45;;;20.60;42.50;;;;;;5078538;28;20040;-57
2021/03/16 05:17:42;;;;;;;1.63;0.65;;;20.60;42.50;;;;;;5085570;28;20048;-56
2021/03/16 05:20:08;;;;;;;1.83;0.50;;;20.60;42.40;;;;;;5089647;28;20028;-58
2021/03/16 05:22:34;;;;;;;1.73;0.73;;;20.50;42.40;;;;;;5083462;28;20044;-53
2021/03/16 05:25:00;;;;;;;1.73;0.65;;;20.60;42.40;;;;;;5069786;28;20481;-55
2021/03/16 05:27:26;;;;;;;3.05;0.90;;;20.60;42.40;;;;;;5070906;28;20037;-54
2021/03/16 05:29:51;;;;;;;1.65;1.23;;;20.60;42.40;;;;;;5073723;28;20082;-54
2021/03/16 05:32:17;;;;;;;1.42;0.60;;;20.60;42.40;;;;;;5078094;28;20036;-55
2021/03/16 05:34:43;;;;;;;2.28;0.60;;;20.60;42.40;;;;;;5079364;28;20033;-51
2021/03/16 05:37:08;;;;;;;1.85;0.50;;;20.60;42.40;;;;;;5092204;28;20040;-57
2021/03/16 05:39:34;;;;;;;1.48;0.60;;;20.60;42.40;;;;;;5087745;28;20533;-55
2021/03/16 05:42:00;;;;;;;1.60;0.70;;;20.60;42.40;;;;;;5079417;28;20481;-56
2021/03/16 05:44:27;;;;;;;0.98;0.40;;;20.60;42.30;;;;;;5085757;28;20073;-55
2021/03/16 05:46:53;;;;;;;1.40;0.70;;;20.60;42.30;;;;;;5085427;28;20492;-51
2021/03/16 05:49:21;;;;;;;1.98;0.60;;;20.60;42.40;;;;;;5076177;28;20027;-56
2021/03/16 05:51:47;;;;;;;1.50;0.60;;;20.60;42.30;;;;;;5088252;28;20032;-57
2021/03/16 05:54:15;;;;;;;1.42;0.50;;;20.60;42.30;;;;;;5083968;28;20032;-56
2021/03/16 05:56:41;;;;;;;1.65;0.60;;;20.60;42.30;;;;;;5081452;28;20028;-59
2021/03/16 05:59:08;;;;;;;1.23;0.50;;;20.60;42.30;;;;;;5090742;28;20024;-56
2021/03/16 06:01:34;;;;;;;1.92;0.80;;;20.60;42.30;;;;;;5082350;28;20052;-56
2021/03/16 06:04:01;;;;;;;2.85;0.73;;;20.60;42.30;;;;;;5078709;28;20435;-57
2021/03/16 06:06:27;;;;;;;0.95;0.52;;;20.60;42.30;;;;;;5074570;28;20064;-57
2021/03/16 06:08:52;;;;;;;1.08;0.52;;;20.60;42.30;;;;;;5080754;28;20440;-56
2021/03/16 06:11:18;;;;;;;2.42;0.65;;;20.60;42.20;;;;;;5090783;28;20035;-55
2021/03/16 06:13:55;;;;;;;2.03;0.70;;;20.60;42.30;;;;;;5073502;28;20431;-57
2021/03/16 06:16:23;;;;;;;1.45;0.57;;;20.60;42.30;;;;;;5077338;28;20415;-52
2021/03/16 06:18:49;;;;;;;1.20;0.57;;;20.60;42.30;;;;;;5088718;28;20040;-58
2021/03/16 06:21:23;;;;;;;2.63;0.60;;;20.60;42.30;;;;;;5081506;28;20028;-52
2021/03/16 06:23:57;;;;;;;1.50;0.60;;;20.60;42.20;;;;;;5082780;28;20070;-58
2021/03/16 06:26:30;;;;;;;2.25;0.57;;;20.60;42.20;;;;;;5087187;28;20896;-57
2021/03/16 06:29:10;;;;;;;3.00;0.80;;;20.60;42.30;;;;;;5072490;28;20036;-58
2021/03/16 06:31:36;;;;;;;1.35;0.50;;;20.60;42.30;;;;;;5077906;28;20414;-50
2021/03/16 06:34:03;;;;;;;0.80;0.60;;;20.60;42.30;;;;;;5072850;28;20033;-52
2021/03/16 06:36:30;;;;;;;3.05;0.70;;;20.60;42.40;;;;;;5082554;28;20032;-55
2021/03/16 06:38:56;;;;;;;2.00;0.73;;;20.60;42.50;;;;;;5084284;28;20032;-55
2021/03/16 06:41:24;;;;;;;1.95;0.57;;;20.70;42.60;;;;;;5086084;28;20393;-50
2021/03/16 06:43:59;;;;;;;2.10;0.50;;;20.70;42.70;;;;;;5076075;28;20055;-56
2021/03/16 06:46:33;;;;;;;1.48;0.60;;;20.70;42.90;;;;;;5084633;28;20062;-55
2021/03/16 06:48:59;;;;;;;1.52;0.55;;;20.70;43.00;;;;;;5072628;28;20052;-53
2021/03/16 06:51:29;;;;;;;0.98;0.50;;;20.70;43.10;;;;;;5070594;28;20090;-50
2021/03/16 06:54:13;;;;;;;3.58;0.75;;;20.70;43.20;;;;;;5078825;28;20035;-58
2021/03/16 06:56:39;;;;;;;4.38;1.25;;;20.70;43.40;;;;;;5077246;28;20040;-57
2021/03/16 06:59:07;;;;;;;3.80;0.90;;;20.70;43.70;;;;;;5079204;28;20028;-55
2021/03/16 07:01:34;;;;;;;4.90;1.33;;;20.70;43.60;;;;;;5075648;28;20097;-41
2021/03/16 07:04:14;;;;;;;7.47;1.10;;;20.70;44.10;;;;;;5089751;28;20036;-59
2021/03/16 07:06:41;;;;;;;7.75;0.90;;;20.70;44.20;;;;;;5086092;28;20081;-55
2021/03/16 07:09:10;;;;;;;5.95;1.20;;;20.80;44.50;;;;;;5087953;28;20036;-52
2021/03/16 07:11:39;;;;;;;6.47;1.27;;;20.80;44.50;;;;;;5089181;28;20028;-49
2021/03/16 07:14:06;;;;;;;3.35;0.98;;;20.80;44.70;;;;;;5071823;28;20413;-48
2021/03/16 07:16:32;;;;;;;6.75;0.90;;;20.80;44.70;;;;;;5081775;28;20052;-49
2021/03/16 07:19:03;;;;;;;8.52;1.02;;;20.70;44.70;;;;;;5074308;28;20385;-50
2021/03/16 07:21:35;;;;;;;10.30;1.17;;;20.70;44.80;;;;;;5079616;28;20024;-55
2021/03/16 07:24:06;;;;;;;5.63;1.13;;;20.70;44.80;;;;;;5086882;28;20040;-51
2021/03/16 07:26:32;;;;;;;7.80;0.90;;;20.70;44.80;;;;;;5092484;28;20035;-51
2021/03/16 07:29:00;;;;;;;15.90;1.65;;;20.70;44.80;;;;;;5090711;28;20380;-46
2021/03/16 07:31:26;;;;;;;3.63;1.00;;;20.70;44.80;;;;;;5091593;28;20020;-51
2021/03/16 07:33:53;;;;;;;2.22;0.90;;;20.70;44.80;;;;;;5082491;28;20029;-56
2021/03/16 07:36:18;;;;;;;6.13;1.00;;;20.70;44.80;;;;;;5074439;28;20118;-47
2021/03/16 07:38:46;;;;;;;6.88;1.33;;;20.70;44.70;;;;;;5081821;28;20107;-52
2021/03/16 07:41:12;;;;;;;3.88;0.65;;;20.70;44.70;;;;;;5089978;28;20103;-49
2021/03/16 07:43:41;;;;;;;9.63;1.33;;;20.70;45.30;;;;;;5080573;28;20032;-55
2021/03/16 07:46:17;;;;;;;4.97;0.80;;;20.70;44.80;;;;;;5075655;28;20031;-53
2021/03/16 07:48:51;;;;;;;7.80;1.00;;;20.70;44.70;;;;;;5071972;28;20388;-53
2021/03/16 07:51:19;;;;;;;7.05;1.52;;;20.70;44.70;;;;;;5075188;28;20090;-53
2021/03/16 07:53:55;;;;;;;3.95;1.08;;;20.70;44.60;;;;;;5090105;28;20039;-57
2021/03/16 07:56:30;;;;;;;3.08;0.90;;;20.70;44.60;;;;;;5090530;28;20032;-53
2021/03/16 07:58:56;;;;;;;4.15;1.05;;;20.70;44.60;;;;;;5089177;28;20044;-48
2021/03/16 08:01:22;;;;;;;3.70;0.98;;;20.70;44.60;;;;;;5075189;28;20068;-56
2021/03/16 08:03:48;;;;;;;7.55;0.98;;;20.70;44.60;;;;;;5090507;28;20043;-51
2021/03/16 08:06:24;;;;;;;3.15;0.90;;;20.70;44.50;;;;;;5087383;28;20081;-54
2021/03/16 08:08:50;;;;;;;2.58;0.98;;;20.70;44.50;;;;;;5090090;28;20028;-52
2021/03/16 08:11:16;;;;;;;3.50;1.10;;;20.70;44.50;;;;;;5090316;28;20034;-52
2021/03/16 08:13:57;;;;;;;4.45;1.05;;;20.70;44.40;;;;;;5078544;28;20117;-56
2021/03/16 08:16:42;;;;;;;4.90;1.60;;;20.70;44.40;;;;;;5072850;28;20025;-55
2021/03/16 08:19:33;;;;;;;4.90;1.00;;;20.70;44.30;;;;;;5080039;28;20024;-56
2021/03/16 08:21:59;;;;;;;3.10;0.80;;;20.70;44.30;;;;;;5084216;28;20035;-52
2021/03/16 08:24:37;;;;;;;4.22;1.10;;;20.70;44.30;;;;;;5077161;28;20039;-56
2021/03/16 08:27:07;;;;;;;5.18;1.05;;;20.70;44.30;;;;;;5089575;28;20533;-53
2021/03/16 08:29:32;;;;;;;2.53;0.73;;;20.70;44.30;;;;;;5073921;28;21359;-55
2021/03/16 08:31:59;;;;;;;6.07;1.60;;;20.70;44.20;;;;;;5088472;28;20024;-52
2021/03/16 08:34:27;;;;;;;2.72;1.10;;;20.70;44.20;;;;;;5087535;28;20117;-52
2021/03/16 08:36:53;;;;;;;13.65;1.35;;;20.70;44.20;;;;;;5087531;28;20031;-54
2021/03/16 08:39:27;;;;;;;3.83;0.77;;;20.70;44.20;;;;;;5071618;28;20025;-55
2021/03/16 08:41:54;;;;;;;4.15;0.73;;;20.70;44.10;;;;;;5079681;28;20032;-56
2021/03/16 08:44:19;;;;;;;3.42;0.60;;;20.70;44.10;;;;;;5087719;28;20032;-54
2021/03/16 08:46:45;;;;;;;4.22;0.85;;;20.70;44.10;;;;;;5075347;28;20507;-50
2021/03/16 08:49:23;;;;;;;2.30;0.80;;;20.70;44.10;;;;;;5077146;28;20103;-53
2021/03/16 08:51:48;;;;;;;2.53;0.80;;;20.70;44.00;;;;;;5082957;28;20486;-53
2021/03/16 08:54:28;;;;;;;2.10;0.90;;;20.70;44.20;;;;;;5073012;28;20052;-56
2021/03/16 08:56:54;;;;;;;4.03;0.75;;;20.70;44.30;;;;;;5083847;28;20158;-56
2021/03/16 08:59:21;;;;;;;5.07;0.90;;;20.70;44.30;;;;;;5078241;28;20466;-57
2021/03/16 09:01:51;;;;;;;5.57;0.93;;;20.70;44.30;;;;;;5084853;28;20040;-54
2021/03/16 09:04:18;;;;;;;3.47;0.95;;;20.70;44.50;;;;;;5091189;28;20042;-51
2021/03/16 09:06:44;;;;;;;4.10;0.80;;;20.70;44.40;;;;;;5094756;28;20032;-51
2021/03/16 09:09:11;;;;;;;5.75;1.48;;;20.70;44.50;;;;;;5092279;28;20077;-55
2021/03/16 09:11:42;;;;;;;4.22;1.45;;;20.80;44.70;;;;;;5092203;28;20035;-54
2021/03/16 09:14:15;;;;;;;4.00;1.00;;;20.80;44.70;;;;;;5085779;28;20048;-51
2021/03/16 09:16:48;;;;;;;5.68;0.93;;;20.80;44.80;;;;;;5076337;28;20099;-53
2021/03/16 09:19:19;;;;;;;6.72;1.40;;;20.80;45.00;;;;;;5075751;28;20049;-51
2021/03/16 09:21:58;;;;;;;2.30;0.80;;;20.80;45.10;;;;;;5083657;28;20465;-56
2021/03/16 09:24:26;;;;;;;2.17;0.90;;;20.80;45.20;;;;;;5082113;28;20397;-46
2021/03/16 09:26:53;;;;;;;1.75;1.13;;;20.80;45.20;;;;;;5090651;28;20039;-51
2021/03/16 09:29:21;;;;;;;3.00;1.10;;;20.80;45.40;;;;;;5081117;28;20515;-53
2021/03/16 09:31:47;;;;;;;4.15;0.90;;;20.90;45.50;;;;;;5083536;28;20032;-52
2021/03/16 09:34:14;;;;;;;3.97;1.00;;;20.90;45.60;;;;;;5079986;28;20414;-51
2021/03/16 09:36:40;;;;;;;3.33;1.00;;;20.90;46.00;;;;;;5075168;28;20028;-53
2021/03/16 09:39:05;;;;;;;4.28;1.10;;;20.90;45.70;;;;;;5072875;28;20031;-49
2021/03/16 09:41:31;;;;;;;4.25;1.05;;;21.00;45.60;;;;;;5094313;28;20020;-49
2021/03/16 09:43:57;;;;;;;4.28;1.00;;;20.90;45.50;;;;;;5087163;28;20044;-55
2021/03/16 09:46:23;;;;;;;4.07;0.98;;;21.00;45.50;;;;;;5076576;28;20462;-49
2021/03/16 09:48:55;;;;;;;1.65;0.93;;;20.90;45.40;;;;;;5083997;28;20028;-50
2021/03/16 09:51:24;;;;;;;2.33;0.88;;;20.90;45.30;;;;;;5086888;28;20394;-53
2021/03/16 09:53:55;;;;;;;3.58;0.77;;;20.90;45.50;;;;;;5077135;28;20103;-51
2021/03/16 09:56:33;;;;;;;2.63;1.00;;;20.90;45.50;;;;;;5076822;28;20115;-50
2021/03/16 09:59:02;;;;;;;3.92;1.00;;;20.80;45.40;;;;;;5077437;28;20033;-52
2021/03/16 10:01:28;;;;;;;2.47;0.95;;;20.80;45.40;;;;;;5082605;28;20385;-48
2021/03/16 10:03:59;;;;;;;1.67;0.60;;;20.80;45.40;;;;;;5082625;28;20122;-53
2021/03/16 10:06:36;;;;;;;3.20;1.10;;;20.80;45.40;;;;;;5091261;28;20077;-51
2021/03/16 10:09:17;;;;;;;2.20;0.77;;;20.80;46.00;;;;;;5085808;28;20073;-53
2021/03/16 10:11:42;;;;;;;6.15;1.08;;;20.80;45.40;;;;;;5093286;28;20855;-50
2021/03/16 10:14:09;;;;;;;2.42;1.08;;;20.80;45.20;;;;;;5085858;28;20074;-47
2021/03/16 10:16:35;;;;;;;1.83;0.68;;;20.80;45.10;;;;;;5093264;28;20032;-54
2021/03/16 10:19:02;;;;;;;2.95;1.10;;;20.80;45.30;;;;;;5080711;28;20036;-51
2021/03/16 10:21:35;;;;;;;1.98;0.80;;;20.90;45.20;;;;;;5075393;28;20056;-51
2021/03/16 10:24:04;;;;;;;2.50;0.88;;;20.80;45.10;;;;;;5078819;28;20052;-51
2021/03/16 10:26:30;;;;;;;4.40;1.30;;;20.80;45.00;;;;;;5089345;28;20036;-54
2021/03/16 10:29:07;;;;;;;1.85;0.70;;;20.80;45.20;;;;;;5090719;28;20099;-56
2021/03/16 10:31:33;;;;;;;4.22;1.00;;;20.80;44.90;;;;;;5082852;28;20043;-48
2021/03/16 10:33:59;;;;;;;4.32;0.88;;;20.90;44.90;;;;;;5090087;28;20028;-55
2021/03/16 10:36:24;;;;;;;2.17;0.73;;;20.80;44.80;;;;;;5090863;28;20035;-53
2021/03/16 10:38:51;;;;;;;2.33;0.60;;;20.90;45.00;;;;;;5081480;28;20035;-52
2021/03/16 10:41:20;;;;;;;3.17;0.80;;;20.80;44.90;;;;;;5090160;28;20031;-49
2021/03/16 10:43:47;;;;;;;2.58;1.27;;;20.80;44.90;;;;;;5086617;28;20057;-49
2021/03/16 10:46:13;;;;;;;4.22;1.40;;;20.80;45.00;;;;;;5086563;28;20096;-51
2021/03/16 10:48:39;;;;;;;4.00;0.98;;;20.80;45.00;;;;;;5079103;28;20025;-51
2021/03/16 10:51:05;;;;;;;3.58;0.88;;;20.80;45.00;;;;;;5085495;28;20024;-53
2021/03/16 10:53:31;;;;;;;2.05;0.95;;;20.80;45.00;;;;;;5079900;28;20028;-53
2021/03/16 10:55:56;;;;;;;4.28;0.90;;;20.80;45.20;;;;;;5086301;28;20024;-53
2021/03/16 10:58:22;;;;;;;3.90;1.30;;;20.80;45.20;;;;;;5091246;28;20024;-49
2021/03/16 11:00:48;;;;;;;4.50;0.90;;;20.80;45.20;;;;;;5081520;28;20044;-51
2021/03/16 11:03:13;;;;;;;4.88;0.90;;;20.80;45.20;;;;;;5071361;28;20506;-54
2021/03/16 11:05:39;;;;;;;5.32;0.93;;;20.80;45.20;;;;;;5075652;28;20508;-52
2021/03/16 11:08:05;;;;;;;5.88;1.30;;;20.80;45.20;;;;;;5088225;28;20457;-51
2021/03/16 11:10:31;;;;;;;6.72;1.30;;;20.80;45.10;;;;;;5073767;28;20028;-53
2021/03/16 11:12:56;;;;;;;3.78;1.23;;;20.80;45.00;;;;;;5085569;28;20028;-56
2021/03/16 11:15:22;;;;;;;5.00;1.17;;;20.70;44.90;;;;;;5083799;28;20025;-52
2021/03/16 11:17:48;;;;;;;4.57;1.15;;;20.70;44.90;;;;;;5072973;28;20025;-54
2021/03/16 11:20:15;;;;;;;2.90;1.20;;;20.70;44.90;;;;;;5069937;28;20025;-49
2021/03/16 11:22:40;;;;;;;6.32;1.33;;;20.70;44.90;;;;;;5080147;28;20035;-53
2021/03/16 11:25:07;;;;;;;4.60;1.00;;;20.70;44.90;;;;;;5072939;28;20103;-55
2021/03/16 11:27:33;;;;;;;4.22;1.10;;;20.70;44.80;;;;;;5072018;28;20105;-48
2021/03/16 11:29:59;;;;;;;3.10;0.98;;;20.70;44.80;;;;;;5079349;28;20028;-54
2021/03/16 11:32:25;;;;;;;5.20;1.23;;;20.70;44.80;;;;;;5072884;28;20477;-50
2021/03/16 11:34:50;;;;;;;6.45;1.17;;;20.70;44.80;;;;;;5081423;28;20489;-49
2021/03/16 11:37:16;;;;;;;4.13;1.30;;;20.70;44.80;;;;;;5073921;28;20024;-50
2021/03/16 11:39:44;;;;;;;3.28;1.25;;;20.70;44.70;;;;;;5084076;28;20035;-50
2021/03/16 11:42:10;;;;;;;5.15;1.50;;;20.70;44.70;;;;;;5087485;28;20021;-52
2021/03/16 11:44:35;;;;;;;7.53;1.10;;;20.70;44.60;;;;;;5078458;28;20447;-52
2021/03/16 11:47:01;;;;;;;2.13;1.05;;;20.70;44.60;;;;;;5072690;28;20024;-55
2021/03/16 11:49:27;;;;;;;3.25;1.30;;;20.60;44.50;;;;;;5076767;28;20028;-54
2021/03/16 11:51:52;;;;;;;3.10;1.02;;;20.70;44.60;;;;;;5080835;28;20543;-52
2021/03/16 11:54:18;;;;;;;4.45;1.48;;;20.70;44.50;;;;;;5071958;28;20571;-54
2021/03/16 11:56:44;;;;;;;2.92;0.65;;;20.60;44.50;;;;;;5084688;28;20056;-51
2021/03/16 11:59:09;;;;;;;2.95;1.00;;;20.70;44.50;;;;;;5083082;28;20026;-52
2021/03/16 12:01:35;;;;;;;2.90;1.00;;;20.70;44.50;;;;;;5072754;28;20067;-50
2021/03/16 12:04:01;;;;;;;3.22;1.05;;;20.70;44.70;;;;;;5078297;28;20032;-55
2021/03/16 12:06:26;;;;;;;4.43;1.40;;;20.70;44.90;;;;;;5076732;28;20028;-55
2021/03/16 12:08:52;;;;;;;2.13;1.02;;;20.70;45.10;;;;;;5082849;28;20047;-52
2021/03/16 12:11:17;;;;;;;5.50;1.17;;;20.70;45.10;;;;;;5069789;28;20239;-50
2021/03/16 12:13:43;;;;;;;2.85;1.02;;;20.70;45.10;;;;;;5075215;28;20040;-55
2021/03/16 12:16:09;;;;;;;3.42;1.30;;;20.70;45.10;;;;;;5077157;28;20024;-51
2021/03/16 12:18:34;;;;;;;2.60;0.90;;;20.70;45.10;;;;;;5071419;28;20104;-55
2021/03/16 12:21:00;;;;;;;2.40;1.00;;;20.70;44.90;;;;;;5075616;28;20106;-57
2021/03/16 12:23:26;;;;;;;6.80;1.23;;;20.70;44.90;;;;;;5090038;28;20035;-55
2021/03/16 12:25:53;;;;;;;4.68;1.25;;;20.70;44.70;;;;;;5078354;28;20029;-53
2021/03/16 12:28:20;;;;;;;3.63;0.90;;;20.70;44.40;;;;;;5087397;28;20468;-54
2021/03/16 12:30:46;;;;;;;4.38;1.30;;;20.70;44.50;;;;;;5083482;28;20020;-55
2021/03/16 12:33:12;;;;;;;3.53;0.95;;;20.70;44.30;;;;;;5090132;28;20035;-54
2021/03/16 12:35:38;;;;;;;4.15;1.20;;;20.70;44.30;;;;;;5084254;28;20048;-55
2021/03/16 12:38:03;;;;;;;3.50;1.00;;;20.70;44.20;;;;;;5084326;28;20068;-58
2021/03/16 12:40:30;;;;;;;2.45;0.95;;;20.70;44.20;;;;;;5078544;28;20039;-56
2021/03/16 12:42:56;;;;;;;3.47;1.10;;;20.70;44.10;;;;;;5093613;28;20032;-55
2021/03/16 12:45:22;;;;;;;3.50;0.98;;;20.70;43.60;;;;;;5086202;28;20032;-55
2021/03/16 12:47:47;;;;;;;3.20;1.08;;;20.70;44.20;;;;;;5086523;28;20037;-57
2021/03/16 12:50:14;;;;;;;2.42;1.20;;;20.60;43.90;;;;;;5091832;28;20032;-55
2021/03/16 12:52:39;;;;;;;2.20;0.90;;;20.60;43.90;;;;;;5086693;28;20103;-56